Time;durP1;ratioP1;P1;durP2;ratioP2;P2;SDS_P1;SDS_P2;PMS_P1;PMS_P2;Temp;Humidity;BMP_temperature;BMP_pressure;BME280_temperature;BME280_humidity;BME280_pressure;Samples;Min_cycle;Max_cycle;Signal;HPM_P1;HPM_P2
2023/10/16 00:01:09;;;;;;;3.47;1.67;;;;;;;6.76;72.34;99997.13;5033054;28;20972;-69
2023/10/16 00:03:41;;;;;;;4.67;1.80;;;;;;;6.81;71.48;99998.84;5029337;28;20226;-63
2023/10/16 00:06:11;;;;;;;4.10;1.40;;;;;;;6.77;72.32;99988.63;5028261;28;20252;-65
2023/10/16 00:08:47;;;;;;;8.07;1.67;;;;;;;6.78;72.39;99984.34;5026593;28;20208;-65
2023/10/16 00:11:17;;;;;;;1.90;1.30;;;;;;;6.79;72.17;100001.44;5026696;28;20202;-64
2023/10/16 00:13:47;;;;;;;4.37;1.90;;;;;;;6.78;71.90;99994.59;5024729;28;20214;-64
2023/10/16 00:16:18;;;;;;;3.07;1.53;;;;;;;6.78;71.97;100005.69;5028689;28;20218;-66
2023/10/16 00:18:47;;;;;;;3.77;1.87;;;;;;;6.81;72.27;99999.72;5029997;28;20206;-64
2023/10/16 00:21:15;;;;;;;3.63;1.70;;;;;;;6.82;71.53;100000.59;5027773;28;20199;-63
2023/10/16 00:23:43;;;;;;;4.50;1.43;;;;;;;6.78;72.07;99995.47;5027247;28;20217;-66
2023/10/16 00:26:14;;;;;;;3.87;2.20;;;;;;;6.77;72.11;99993.75;5029431;28;20704;-64
2023/10/16 00:28:44;;;;;;;4.80;1.97;;;;;;;6.78;71.87;99998.00;5029556;28;20203;-64
2023/10/16 00:31:20;;;;;;;6.73;2.10;;;;;;;6.82;72.17;99988.63;5023980;28;20213;-64
2023/10/16 00:33:50;;;;;;;3.07;1.60;;;;;;;6.81;72.03;99994.59;5029378;28;20211;-64
2023/10/16 00:36:18;;;;;;;3.50;1.93;;;;;;;6.81;72.08;99986.91;5028731;28;20229;-64
2023/10/16 00:38:51;;;;;;;2.13;1.50;;;;;;;6.78;71.83;99992.03;5028571;28;20210;-67
2023/10/16 00:41:24;;;;;;;3.97;1.80;;;;;;;6.77;72.56;99992.88;5027561;28;20261;-64
2023/10/16 00:43:52;;;;;;;4.57;1.77;;;;;;;6.78;71.95;99990.34;5028336;28;20225;-65
2023/10/16 00:46:32;;;;;;;3.73;1.83;;;;;;;6.77;72.70;99998.88;5028536;28;20352;-65
2023/10/16 00:49:04;;;;;;;2.43;1.60;;;;;;;6.76;72.72;99998.84;5026348;28;20202;-64
2023/10/16 00:51:33;;;;;;;5.63;1.80;;;;;;;6.76;72.02;99993.72;5031116;28;20585;-64
2023/10/16 00:54:16;;;;;;;4.33;1.70;;;;;;;6.76;73.01;100007.38;5028680;28;20256;-65
2023/10/16 00:56:46;;;;;;;4.80;2.00;;;;;;;6.80;72.45;99999.72;5024690;28;20222;-62
2023/10/16 00:59:16;;;;;;;4.83;2.00;;;;;;;6.82;72.51;99998.03;5029994;28;20658;-67
2023/10/16 01:01:44;;;;;;;5.90;1.97;;;;;;;6.81;72.33;100011.66;5028378;28;21351;-67
2023/10/16 01:04:15;;;;;;;4.20;1.90;;;;;;;6.74;72.34;100001.41;5031323;28;20699;-68
2023/10/16 01:06:44;;;;;;;4.53;1.70;;;;;;;6.75;72.45;100005.69;5025940;28;20733;-68
2023/10/16 01:09:22;;;;;;;3.60;1.90;;;;;;;6.76;72.99;99996.28;5022620;28;20292;-68
2023/10/16 01:11:51;;;;;;;2.60;1.40;;;;;;;6.76;72.57;100009.94;5032877;28;20203;-68
2023/10/16 01:14:19;;;;;;;3.37;1.43;;;;;;;6.73;73.25;99994.56;5028724;28;20206;-68
2023/10/16 01:16:47;;;;;;;4.53;1.67;;;;;;;6.74;72.96;100003.13;5027957;28;20253;-67
2023/10/16 01:19:19;;;;;;;4.63;1.67;;;;;;;6.77;72.57;100014.25;5030698;28;20202;-69
2023/10/16 01:21:49;;;;;;;5.43;1.67;;;;;;;6.81;72.56;100003.97;5027639;28;20549;-68
2023/10/16 01:24:19;;;;;;;3.70;1.90;;;;;;;6.83;72.62;100007.41;5029221;28;20579;-69
2023/10/16 01:26:49;;;;;;;2.67;1.57;;;;;;;6.85;72.52;100013.38;5023189;28;20289;-68
2023/10/16 01:29:17;;;;;;;4.30;1.70;;;;;;;6.86;73.04;100010.00;5030877;28;20252;-68
2023/10/16 01:31:51;;;;;;;3.40;1.73;;;;;;;6.86;73.07;100007.44;5034049;28;20253;-68
2023/10/16 01:34:22;;;;;;;3.63;1.80;;;;;;;6.86;72.28;100010.00;5030895;28;20206;-66
2023/10/16 01:36:51;;;;;;;1.57;1.27;;;;;;;6.83;72.71;100005.69;5033266;28;20214;-67
2023/10/16 01:39:49;;;;;;;5.73;1.70;;;;;;;6.83;73.17;100015.09;5030813;28;20538;-70
2023/10/16 01:42:18;;;;;;;3.63;1.57;;;;;;;6.86;73.03;100017.66;5030586;28;20237;-67
2023/10/16 01:44:51;;;;;;;5.67;1.47;;;;;;;6.88;72.54;100018.50;5030309;28;20221;-72
2023/10/16 01:47:19;;;;;;;3.87;2.07;;;;;;;6.91;72.00;100006.56;5029858;28;20215;-66
2023/10/16 01:49:48;;;;;;;3.70;1.60;;;;;;;6.92;72.34;100023.66;5031273;28;20641;-67
2023/10/16 01:52:17;;;;;;;4.47;1.53;;;;;;;6.89;73.36;100017.69;5032636;28;20206;-67
2023/10/16 01:54:47;;;;;;;4.17;1.53;;;;;;;6.93;72.07;100016.84;5032246;28;20673;-71
2023/10/16 01:57:15;;;;;;;3.80;1.50;;;;;;;6.93;72.96;100019.41;5031445;28;20616;-68
2023/10/16 01:59:47;;;;;;;3.60;1.63;;;;;;;6.89;72.30;100018.53;5031834;28;20234;-67
2023/10/16 02:02:17;;;;;;;2.73;1.50;;;;;;;6.89;72.35;100022.81;5029025;28;20681;-66
2023/10/16 02:04:46;;;;;;;3.10;1.60;;;;;;;6.85;72.79;100037.31;5030270;28;20695;-68
2023/10/16 02:07:14;;;;;;;3.53;1.40;;;;;;;6.85;72.84;100033.88;5021755;28;20231;-68
2023/10/16 02:09:42;;;;;;;2.70;1.80;;;;;;;6.88;72.39;100039.84;5027740;28;20217;-65
2023/10/16 02:12:14;;;;;;;1.63;1.37;;;;;;;6.90;72.16;100037.31;5032805;28;20207;-61
2023/10/16 02:14:44;;;;;;;3.03;1.40;;;;;;;6.93;72.87;100047.56;5031083;28;20202;-61
2023/10/16 02:17:19;;;;;;;4.03;1.60;;;;;;;6.91;73.09;100045.00;5031655;28;20218;-63
2023/10/16 02:19:48;;;;;;;4.43;1.47;;;;;;;6.90;72.46;100038.16;5031026;28;20214;-63
2023/10/16 02:22:16;;;;;;;3.03;1.50;;;;;;;6.92;73.23;100048.41;5024662;28;20202;-61
2023/10/16 02:24:48;;;;;;;4.13;1.53;;;;;;;6.89;72.93;100063.78;5031317;28;20542;-63
2023/10/16 02:27:19;;;;;;;3.17;1.37;;;;;;;6.89;72.74;100056.97;5030416;28;20224;-63
2023/10/16 02:29:51;;;;;;;4.77;1.80;;;;;;;6.86;73.12;100049.25;5029204;28;20236;-63
2023/10/16 02:32:22;;;;;;;5.90;1.40;;;;;;;6.86;73.05;100058.66;5029623;28;20226;-62
2023/10/16 02:34:51;;;;;;;2.60;1.70;;;;;;;6.89;73.40;100053.53;5030085;28;20202;-61
2023/10/16 02:37:20;;;;;;;3.90;1.93;;;;;;;6.92;73.23;100068.91;5030830;28;20272;-62
2023/10/16 02:39:53;;;;;;;4.73;1.47;;;;;;;6.95;73.23;100063.78;5024929;28;20207;-63
2023/10/16 02:42:25;;;;;;;2.77;1.77;;;;;;;6.95;73.16;100074.03;5033131;28;20209;-65
2023/10/16 02:44:54;;;;;;;3.87;1.93;;;;;;;6.96;73.07;100070.66;5028867;28;20221;-62
2023/10/16 02:47:25;;;;;;;3.73;1.47;;;;;;;6.97;72.78;100077.47;5030427;28;20290;-63
2023/10/16 02:49:56;;;;;;;4.00;1.60;;;;;;;6.99;73.22;100073.19;5031173;28;20211;-66
2023/10/16 02:52:25;;;;;;;6.23;1.50;;;;;;;7.03;72.81;100069.78;5031994;28;20199;-64
2023/10/16 02:54:56;;;;;;;3.43;1.77;;;;;;;7.02;72.83;100070.66;5030833;28;20290;-63
2023/10/16 02:57:27;;;;;;;4.80;1.83;;;;;;;7.04;73.39;100075.78;5029448;28;20241;-61
2023/10/16 02:59:56;;;;;;;1.83;1.27;;;;;;;7.06;73.18;100071.50;5022067;28;20575;-62
2023/10/16 03:02:27;;;;;;;5.03;1.33;;;;;;;7.04;72.46;100068.97;5028957;28;20217;-64
2023/10/16 03:05:10;;;;;;;4.03;1.70;;;;;;;7.05;73.44;100064.69;5031059;28;20352;-68
2023/10/16 03:07:39;;;;;;;1.93;1.60;;;;;;;7.02;73.09;100078.31;5027042;28;20257;-63
2023/10/16 03:10:10;;;;;;;3.73;1.70;;;;;;;7.05;73.61;100096.28;5030795;28;20574;-65
2023/10/16 03:12:42;;;;;;;2.80;1.23;;;;;;;7.07;73.17;100091.16;5029992;28;20203;-63
2023/10/16 03:15:15;;;;;;;2.37;1.57;;;;;;;7.05;72.64;100082.63;5026976;28;21178;-65
2023/10/16 03:17:43;;;;;;;3.23;1.67;;;;;;;7.06;72.51;100082.59;5027937;28;20233;-62
2023/10/16 03:20:20;;;;;;;4.27;1.27;;;;;;;7.02;72.98;100092.00;5027134;28;20213;-64
2023/10/16 03:22:48;;;;;;;3.93;1.40;;;;;;;7.06;73.08;100092.00;5030055;28;20206;-63
2023/10/16 03:25:27;;;;;;;3.50;1.50;;;;;;;7.06;73.11;100085.16;5029447;28;20203;-62
2023/10/16 03:27:57;;;;;;;4.37;1.83;;;;;;;7.05;72.62;100095.44;5029324;28;20264;-63
2023/10/16 03:30:27;;;;;;;5.10;1.40;;;;;;;7.03;73.41;100097.97;5029666;28;20565;-62
2023/10/16 03:32:55;;;;;;;3.27;1.70;;;;;;;7.06;73.40;100107.38;5023132;28;20227;-64
2023/10/16 03:35:29;;;;;;;4.27;1.60;;;;;;;7.03;72.83;100108.22;5021843;28;20330;-62
2023/10/16 03:37:58;;;;;;;3.67;1.60;;;;;;;7.01;73.47;100104.81;5030941;28;20229;-63
2023/10/16 03:40:27;;;;;;;6.47;1.53;;;;;;;7.00;73.04;100103.09;5029972;28;20199;-64
2023/10/16 03:42:56;;;;;;;3.40;1.10;;;;;;;6.95;73.97;100110.75;5029754;28;20230;-65
2023/10/16 03:45:26;;;;;;;3.43;1.90;;;;;;;6.93;73.38;100112.47;5028155;28;20645;-65
2023/10/16 03:47:57;;;;;;;4.17;1.37;;;;;;;6.91;73.95;100113.28;5030557;28;20203;-63
2023/10/16 03:50:25;;;;;;;4.10;1.60;;;;;;;6.94;73.53;100109.03;5029475;28;20653;-63
2023/10/16 03:52:55;;;;;;;2.83;1.60;;;;;;;6.97;73.74;100113.34;5029991;28;20634;-64
2023/10/16 03:55:26;;;;;;;3.17;1.53;;;;;;;6.94;74.04;100109.03;5025905;28;20301;-64
2023/10/16 03:57:55;;;;;;;3.10;1.33;;;;;;;6.96;74.21;100122.72;5030477;28;20321;-64
2023/10/16 04:00:41;;;;;;;3.57;1.43;;;;;;;6.94;74.71;100119.28;5027895;28;20296;-63
2023/10/16 04:03:11;;;;;;;4.37;1.53;;;;;;;6.96;75.26;100116.75;5024645;28;20260;-64
2023/10/16 04:05:46;;;;;;;6.33;2.10;;;;;;;6.91;75.06;100119.28;5026074;28;20280;-64
2023/10/16 04:08:14;;;;;;;2.80;1.70;;;;;;;6.90;74.48;100111.59;5029300;28;20632;-65
2023/10/16 04:10:47;;;;;;;4.43;1.60;;;;;;;6.88;74.77;100113.28;5035946;28;20214;-65
2023/10/16 04:13:16;;;;;;;1.73;1.60;;;;;;;6.87;75.33;100112.44;5026704;28;20245;-63
2023/10/16 04:15:59;;;;;;;3.53;1.83;;;;;;;6.86;75.62;100120.13;5025379;28;20556;-64
2023/10/16 04:18:30;;;;;;;4.60;1.67;;;;;;;6.84;74.54;100121.81;5028455;28;20366;-64
2023/10/16 04:21:37;;;;;;;2.57;1.50;;;;;;;6.81;75.45;100137.16;5027975;28;20246;-64
2023/10/16 04:24:17;;;;;;;2.93;1.80;;;;;;;6.81;74.63;100124.34;5032705;28;20221;-64
2023/10/16 04:26:57;;;;;;;2.73;2.00;;;;;;;6.81;75.26;100126.91;5027078;28;20203;-63
2023/10/16 04:29:28;;;;;;;4.07;1.90;;;;;;;6.81;74.82;100135.44;5029188;28;20229;-63
2023/10/16 04:31:58;;;;;;;3.60;1.63;;;;;;;6.83;75.48;100125.22;5022377;28;20198;-66
2023/10/16 04:34:32;;;;;;;4.40;1.90;;;;;;;6.78;75.86;100131.19;5029814;28;20549;-60
2023/10/16 04:45:28;;;;;;;3.87;1.97;;;;;;;6.80;75.69;100138.84;5035150;28;20206;-61
2023/10/16 04:48:07;;;;;;;4.90;1.90;;;;;;;6.84;76.34;100137.16;5033535;28;20703;-62
2023/10/16 04:50:40;;;;;;;3.83;1.87;;;;;;;6.82;76.09;100138.88;5033098;28;20205;-65
2023/10/16 04:53:27;;;;;;;5.77;1.80;;;;;;;6.85;75.97;100144.00;5034652;28;20221;-64
2023/10/16 04:56:04;;;;;;;3.70;1.97;;;;;;;6.84;76.22;100140.56;5032726;28;20658;-62
2023/10/16 04:58:47;;;;;;;4.20;2.17;;;;;;;6.87;75.90;100147.44;5032306;28;20689;-62
2023/10/16 05:01:33;;;;;;;4.50;2.30;;;;;;;6.84;76.23;100143.13;5035173;28;20561;-61
2023/10/16 05:04:34;;;;;;;5.93;1.97;;;;;;;6.82;75.55;100141.44;5036495;28;20239;-64
2023/10/16 05:07:15;;;;;;;4.00;2.33;;;;;;;6.83;76.16;100153.38;5028909;28;20199;-61
2023/10/16 05:10:12;;;;;;;7.30;2.00;;;;;;;6.84;75.92;100149.97;5030514;28;20214;-61
2023/10/16 05:16:27;;;;;;;8.83;2.20;;;;;;;6.84;76.00;100155.09;5019859;28;20256;-64
2023/10/16 05:19:02;;;;;;;2.97;1.67;;;;;;;6.85;75.55;100154.22;5035666;28;20222;-66
2023/10/16 06:14:21;;;;;;;2.80;2.03;;;;;;;6.96;76.23;100214.09;5031481;28;20694;-67
2023/10/16 06:16:53;;;;;;;5.10;2.20;;;;;;;6.95;76.54;100212.34;5032706;28;20252;-67
2023/10/16 06:19:22;;;;;;;4.27;1.93;;;;;;;6.96;75.76;100209.81;5028636;28;20217;-70
2023/10/16 06:21:54;;;;;;;2.17;1.80;;;;;;;7.01;75.92;100226.06;5030191;28;20211;-68
2023/10/16 06:24:28;;;;;;;5.80;1.97;;;;;;;7.02;76.43;100226.91;5034089;28;20681;-67
2023/10/16 06:26:59;;;;;;;3.90;1.80;;;;;;;7.04;75.95;100224.38;5031126;28;20305;-70
2023/10/16 06:29:34;;;;;;;5.13;1.70;;;;;;;7.04;76.07;100227.78;5032806;28;20541;-67
2023/10/16 06:32:07;;;;;;;6.13;2.73;;;;;;;7.13;75.91;100232.94;5032852;28;20207;-68
2023/10/16 06:34:36;;;;;;;3.80;1.90;;;;;;;7.17;75.64;100226.13;5027017;28;20207;-68
2023/10/16 06:37:06;;;;;;;4.67;2.13;;;;;;;7.19;75.79;100220.19;5028988;28;20209;-69
2023/10/16 06:39:36;;;;;;;2.47;1.93;;;;;;;7.19;75.09;100227.03;5037243;28;20214;-67
2023/10/16 06:42:11;;;;;;;6.03;2.23;;;;;;;7.17;75.61;100227.00;5032527;28;20741;-69
2023/10/16 06:44:42;;;;;;;5.40;1.93;;;;;;;7.21;75.17;100226.16;5028011;28;20248;-70
2023/10/16 06:47:12;;;;;;;4.93;2.47;;;;;;;7.30;75.98;100232.19;5030582;28;20213;-70
2023/10/16 06:49:40;;;;;;;6.73;2.33;;;;;;;7.32;75.01;100231.34;5032036;28;20198;-64
2023/10/16 06:52:12;;;;;;;4.33;1.60;;;;;;;7.30;74.51;100229.63;5032312;28;20203;-64
2023/10/16 06:54:41;;;;;;;5.80;1.80;;;;;;;7.33;75.41;100247.56;5031949;28;20291;-64
2023/10/16 06:57:11;;;;;;;4.43;2.10;;;;;;;7.34;74.74;100234.78;5024854;28;20702;-65
2023/10/16 06:59:40;;;;;;;4.47;2.40;;;;;;;7.41;74.73;100246.78;5043992;28;20303;-65
2023/10/16 07:02:15;;;;;;;4.73;2.03;;;;;;;7.50;75.45;100240.81;5032191;28;20730;-65
2023/10/16 07:04:45;;;;;;;6.20;2.30;;;;;;;7.56;73.93;100243.41;5032058;28;20205;-63
2023/10/16 07:07:18;;;;;;;4.97;2.23;;;;;;;7.62;74.24;100248.59;5032428;28;20206;-70
2023/10/16 07:09:49;;;;;;;4.07;1.93;;;;;;;7.60;72.80;100242.56;5034229;28;20197;-70
2023/10/16 07:12:20;;;;;;;6.17;2.03;;;;;;;7.61;71.98;100251.97;5037637;28;20213;-73
2023/10/16 07:14:56;;;;;;;3.07;1.80;;;;;;;7.62;73.20;100261.41;5032417;28;20257;-70
2023/10/16 07:17:25;;;;;;;3.73;1.90;;;;;;;7.64;72.75;100266.53;5031702;28;20654;-71
2023/10/16 07:19:58;;;;;;;4.93;2.20;;;;;;;7.62;72.41;100274.22;5031010;28;20227;-66
2023/10/16 07:22:31;;;;;;;4.67;1.97;;;;;;;7.60;72.94;100270.78;5028643;28;20206;-69
2023/10/16 07:25:22;;;;;;;3.60;2.00;;;;;;;7.61;71.77;100272.50;5030585;28;20207;-66
2023/10/16 07:27:58;;;;;;;5.00;1.90;;;;;;;7.64;71.51;100287.03;5031161;28;20267;-67
2023/10/16 07:30:27;;;;;;;3.23;1.70;;;;;;;7.62;71.72;100279.34;5031790;28;20684;-70
2023/10/16 07:32:56;;;;;;;4.20;1.80;;;;;;;7.66;71.72;100288.78;5032009;28;20241;-70
2023/10/16 07:35:24;;;;;;;2.40;1.90;;;;;;;7.64;71.25;100280.19;5031992;28;20217;-69
2023/10/16 07:37:54;;;;;;;4.70;1.57;;;;;;;7.68;70.75;100284.47;5028137;28;20210;-69
2023/10/16 07:40:23;;;;;;;3.20;1.47;;;;;;;7.67;70.82;100280.22;5031285;28;20209;-71
2023/10/16 07:42:52;;;;;;;3.30;1.40;;;;;;;7.69;71.05;100278.50;5028773;28;20611;-70
2023/10/16 07:45:22;;;;;;;3.90;1.73;;;;;;;7.66;70.87;100285.34;5031281;28;20285;-70
2023/10/16 07:47:51;;;;;;;4.03;1.60;;;;;;;7.71;71.03;100288.78;5034240;28;20213;-70
2023/10/16 07:50:21;;;;;;;3.20;1.60;;;;;;;7.81;70.94;100284.56;5029820;28;20695;-70
2023/10/16 07:52:50;;;;;;;3.53;1.67;;;;;;;7.78;69.99;100289.66;5026543;28;20202;-71
2023/10/16 07:55:38;;;;;;;4.73;1.33;;;;;;;7.88;70.37;100291.38;5029176;28;20251;-70
2023/10/16 07:58:15;;;;;;;6.47;1.67;;;;;;;7.98;69.38;100288.00;5030350;28;20321;-73
2023/10/16 08:00:58;;;;;;;5.00;1.73;;;;;;;8.04;68.75;100287.19;5030774;28;20230;-63
2023/10/16 08:03:27;;;;;;;4.50;1.53;;;;;;;8.09;69.08;100288.03;5024278;28;20205;-66
2023/10/16 08:05:55;;;;;;;2.70;1.53;;;;;;;8.08;68.95;100289.75;5026049;28;20225;-64
2023/10/16 08:08:35;;;;;;;3.33;1.40;;;;;;;8.06;68.07;100288.88;5027646;28;20302;-64
2023/10/16 08:11:12;;;;;;;3.23;1.50;;;;;;;8.09;68.74;100276.06;5019158;28;21013;-62
2023/10/16 08:13:47;;;;;;;2.40;1.37;;;;;;;8.11;68.39;100278.66;5025244;28;20205;-64
2023/10/16 08:16:19;;;;;;;2.10;1.30;;;;;;;8.10;68.36;100288.06;5030811;28;20276;-64
2023/10/16 08:18:48;;;;;;;3.80;1.33;;;;;;;8.10;68.21;100290.63;5029870;28;20748;-62
2023/10/16 08:21:24;;;;;;;2.97;1.40;;;;;;;8.23;67.88;100300.03;5031726;28;20725;-64
2023/10/16 08:23:54;;;;;;;3.33;1.17;;;;;;;8.26;67.20;100293.22;5028695;28;20297;-62
2023/10/16 08:26:29;;;;;;;3.23;1.20;;;;;;;8.35;67.38;100299.19;5024718;28;20286;-64
2023/10/16 08:29:11;;;;;;;3.93;1.33;;;;;;;8.41;66.91;100293.28;5027896;28;20208;-64
2023/10/16 08:31:42;;;;;;;3.70;1.20;;;;;;;8.46;65.95;100301.81;5036556;28;20650;-64
2023/10/16 08:34:13;;;;;;;2.60;1.50;;;;;;;8.50;65.55;100303.53;5035560;28;20296;-63
2023/10/16 08:36:41;;;;;;;2.03;1.10;;;;;;;8.58;65.55;100303.53;5034127;28;20653;-64
2023/10/16 08:39:09;;;;;;;5.07;1.20;;;;;;;8.59;65.59;100308.69;5033229;28;20210;-65
2023/10/16 08:41:45;;;;;;;3.60;1.70;;;;;;;8.52;66.14;100301.00;5036039;28;20225;-65
2023/10/16 08:44:18;;;;;;;4.53;1.20;;;;;;;8.49;65.94;100306.13;5028987;28;20317;-65
2023/10/16 08:49:31;;;;;;;2.50;1.30;;;;;;;8.53;66.50;100318.97;5025918;28;20265;-62
2023/10/16 08:52:10;;;;;;;3.13;1.40;;;;;;;8.56;65.14;100308.69;5034352;28;20217;-63
2023/10/16 08:55:00;;;;;;;5.37;1.50;;;;;;;8.61;66.02;100312.09;5037959;28;20198;-64
2023/10/16 08:57:29;;;;;;;3.27;1.60;;;;;;;8.68;65.58;100313.81;5032036;28;20242;-63
2023/10/16 08:59:58;;;;;;;4.03;1.37;;;;;;;8.74;65.23;100312.13;5035100;28;20218;-63
2023/10/16 09:02:29;;;;;;;5.00;1.50;;;;;;;8.75;65.20;100309.56;5033875;28;20212;-61
2023/10/16 09:04:58;;;;;;;2.60;1.50;;;;;;;8.73;64.64;100320.66;5032407;28;20230;-62
2023/10/16 09:07:27;;;;;;;4.30;1.67;;;;;;;8.69;65.00;100315.56;5031590;28;20661;-64
2023/10/16 09:09:56;;;;;;;5.30;1.70;;;;;;;8.67;64.95;100314.69;5034897;28;20257;-68
2023/10/16 09:12:27;;;;;;;3.20;1.30;;;;;;;8.69;64.67;100314.72;5035150;28;20202;-68
2023/10/16 09:15:05;;;;;;;7.13;1.97;;;;;;;8.63;64.77;100314.69;5034042;28;20672;-67
2023/10/16 09:17:35;;;;;;;5.17;1.43;;;;;;;8.56;65.85;100326.66;5040224;28;20210;-71
2023/10/16 09:20:12;;;;;;;6.90;1.97;;;;;;;8.55;65.47;100324.13;5032651;28;20338;-70
2023/10/16 09:22:45;;;;;;;3.90;1.93;;;;;;;8.48;65.63;100325.81;5036413;28;20577;-67
2023/10/16 09:25:15;;;;;;;6.07;1.90;;;;;;;8.47;65.67;100329.25;5032170;28;20206;-65
2023/10/16 09:28:04;;;;;;;4.33;1.70;;;;;;;8.42;65.86;100325.78;5031513;28;20210;-67
2023/10/16 09:30:33;;;;;;;5.93;1.70;;;;;;;8.43;66.14;100330.94;5031823;28;20265;-66
2023/10/16 09:33:06;;;;;;;3.43;1.70;;;;;;;8.37;65.42;100341.19;5028564;28;20294;-71
2023/10/16 09:35:43;;;;;;;4.37;1.80;;;;;;;8.37;65.11;100327.47;5032974;28;20226;-64
2023/10/16 09:38:17;;;;;;;2.37;1.47;;;;;;;8.33;64.28;100328.31;5035766;28;20206;-68
2023/10/16 09:40:58;;;;;;;2.80;1.07;;;;;;;8.32;63.93;100339.41;5033239;28;20224;-71
2023/10/16 09:43:27;;;;;;;1.53;1.00;;;;;;;8.38;64.27;100354.88;5032607;28;20637;-73
2023/10/16 09:48:42;;;;;;;2.60;1.40;;;;;;;8.55;62.67;100336.94;5033050;28;20316;-70
2023/10/16 09:51:12;;;;;;;3.77;1.30;;;;;;;8.64;61.75;100335.22;5032699;28;20202;-70
2023/10/16 09:53:41;;;;;;;3.10;1.07;;;;;;;8.70;61.54;100335.25;5032729;28;20257;-66
2023/10/16 09:56:13;;;;;;;2.70;1.27;;;;;;;8.73;61.03;100338.66;5033033;28;20211;-71
2023/10/16 09:58:45;;;;;;;3.53;1.30;;;;;;;8.68;61.29;100342.09;5031641;28;20268;-68
2023/10/16 10:01:21;;;;;;;3.73;1.50;;;;;;;8.58;61.14;100347.19;5029510;28;20701;-69
2023/10/16 10:03:51;;;;;;;5.07;1.33;;;;;;;8.52;62.32;100342.94;5033558;28;20740;-68
2023/10/16 10:06:21;;;;;;;3.70;1.50;;;;;;;8.52;62.74;100342.94;5030654;28;20202;-68
2023/10/16 10:09:21;;;;;;;2.80;1.50;;;;;;;8.49;63.77;100342.91;5030851;28;20256;-70
2023/10/16 10:12:04;;;;;;;3.20;1.53;;;;;;;8.36;64.45;100354.84;5030210;28;20292;-69
2023/10/16 10:14:48;;;;;;;5.17;1.83;;;;;;;8.22;65.22;100348.81;5032508;28;20289;-70
2023/10/16 10:17:19;;;;;;;3.40;1.60;;;;;;;8.19;65.42;100357.38;5029643;28;20298;-70
2023/10/16 10:19:55;;;;;;;3.27;1.70;;;;;;;8.17;65.69;100353.97;5033494;28;20604;-63
2023/10/16 10:22:27;;;;;;;4.57;1.93;;;;;;;8.16;65.07;100354.78;5030675;28;20260;-64
2023/10/16 10:25:16;;;;;;;2.30;1.47;;;;;;;8.16;64.99;100346.22;5029277;28;20206;-63
2023/10/16 10:27:47;;;;;;;6.00;1.80;;;;;;;8.21;65.18;100337.72;5027459;28;20246;-64
2023/10/16 10:30:18;;;;;;;1.80;1.50;;;;;;;8.15;64.07;100347.09;5030748;28;20285;-64
2023/10/16 10:32:53;;;;;;;5.43;2.17;;;;;;;8.18;65.11;100350.53;5032079;28;20210;-62
2023/10/16 10:35:27;;;;;;;1.73;1.60;;;;;;;8.19;63.56;100348.81;5031788;28;20237;-63
2023/10/16 10:38:17;;;;;;;2.10;1.20;;;;;;;8.27;63.35;100341.13;5030233;28;20281;-65
2023/10/16 10:41:14;;;;;;;5.50;1.87;;;;;;;8.44;63.87;100344.63;5028860;28;20579;-64
2023/10/16 10:43:48;;;;;;;3.10;1.87;;;;;;;8.64;63.02;100340.38;5029137;28;20205;-62
2023/10/16 10:46:25;;;;;;;5.63;1.77;;;;;;;8.80;62.46;100345.50;5032218;28;20206;-63
2023/10/16 10:48:56;;;;;;;3.23;1.40;;;;;;;8.80;62.60;100337.81;5035732;28;20594;-65
2023/10/16 10:51:34;;;;;;;4.33;1.53;;;;;;;8.86;61.37;100340.38;5028033;28;20581;-64
2023/10/16 10:54:03;;;;;;;4.27;1.80;;;;;;;8.82;61.39;100347.25;5031779;28;20202;-63
2023/10/16 10:56:39;;;;;;;3.00;1.33;;;;;;;8.89;61.43;100350.66;5033000;28;20588;-62
2023/10/16 10:59:09;;;;;;;2.57;1.57;;;;;;;8.85;61.11;100346.38;5030166;28;20246;-68
2023/10/16 11:01:50;;;;;;;5.87;1.40;;;;;;;8.88;61.14;100341.25;5028513;28;20219;-68
2023/10/16 11:04:20;;;;;;;4.37;1.50;;;;;;;8.88;61.03;100348.97;5028020;28;20211;-70
2023/10/16 11:06:54;;;;;;;4.13;1.60;;;;;;;8.91;60.71;100351.50;5028404;28;20256;-71
2023/10/16 11:09:26;;;;;;;3.50;1.60;;;;;;;8.86;60.96;100348.94;5028115;28;20202;-67
2023/10/16 11:11:55;;;;;;;3.67;1.33;;;;;;;8.82;60.17;100352.38;5038979;28;20301;-71
2023/10/16 11:14:34;;;;;;;2.63;1.40;;;;;;;8.77;60.92;100342.97;5026997;28;20202;-65
2023/10/16 11:17:05;;;;;;;4.70;1.40;;;;;;;8.80;61.11;100340.38;5032212;28;20201;-65
2023/10/16 11:19:49;;;;;;;2.73;1.63;;;;;;;8.84;61.35;100342.13;5032312;28;20302;-64
2023/10/16 11:22:27;;;;;;;4.50;1.43;;;;;;;8.86;60.89;100348.09;5026481;28;20313;-64
2023/10/16 11:24:56;;;;;;;3.57;1.43;;;;;;;8.88;60.87;100338.69;5035679;28;20819;-65
2023/10/16 11:27:24;;;;;;;3.80;1.37;;;;;;;8.86;60.60;100346.38;5027301;28;20238;-64
2023/10/16 11:29:53;;;;;;;5.53;1.50;;;;;;;8.81;60.60;100342.09;5026746;28;20198;-72
2023/10/16 11:32:25;;;;;;;4.97;1.87;;;;;;;8.81;60.87;100344.69;5026715;28;20206;-73
2023/10/16 11:35:13;;;;;;;4.10;1.10;;;;;;;8.85;60.40;100346.38;5029851;28;20206;-64
2023/10/16 11:37:44;;;;;;;1.47;1.10;;;;;;;8.83;60.40;100338.66;5018503;28;20229;-66
2023/10/16 11:40:19;;;;;;;2.53;1.27;;;;;;;8.79;60.54;100346.38;5014212;28;20205;-66
2023/10/16 11:42:47;;;;;;;2.13;1.13;;;;;;;8.81;60.56;100365.22;5011928;28;20222;-69
2023/10/16 11:45:23;;;;;;;4.57;1.60;;;;;;;8.77;60.38;100348.09;5015905;28;20261;-70
2023/10/16 11:48:18;;;;;;;2.57;1.50;;;;;;;8.73;60.70;100347.25;5019791;28;20202;-65
2023/10/16 11:50:41;;;;;;;2.83;1.33;;;;;;;8.78;60.99;100349.81;5010169;28;20651;-62
2023/10/16 11:53:11;;;;;;;4.10;1.43;;;;;;;8.82;60.14;100356.66;5014104;28;20300;-64
2023/10/16 11:55:39;;;;;;;5.10;1.70;;;;;;;8.80;60.82;100348.97;5020932;28;20199;-73
2023/10/16 11:58:08;;;;;;;2.97;1.50;;;;;;;8.84;60.31;100352.41;5015441;28;20293;-69
2023/10/16 12:00:42;;;;;;;2.43;1.30;;;;;;;8.90;60.21;100355.78;5013777;28;20218;-67
2023/10/16 12:03:14;;;;;;;2.73;1.33;;;;;;;8.92;59.99;100343.81;5011510;28;20253;-72
2023/10/16 12:05:43;;;;;;;2.53;1.20;;;;;;;8.98;59.39;100342.94;5020055;28;20203;-70
2023/10/16 12:08:18;;;;;;;3.27;1.77;;;;;;;9.06;59.38;100356.69;5011257;28;20211;-67
2023/10/16 12:10:47;;;;;;;2.67;1.23;;;;;;;9.11;58.75;100360.09;5019674;28;20206;-69
2023/10/16 12:13:15;;;;;;;4.23;1.73;;;;;;;9.06;59.52;100356.69;5012067;28;20204;-68
2023/10/16 12:15:46;;;;;;;2.90;1.50;;;;;;;9.09;59.67;100366.06;5015767;28;20298;-70
2023/10/16 12:18:15;;;;;;;2.77;1.60;;;;;;;9.07;59.08;100358.38;5009557;28;20273;-65
2023/10/16 12:20:43;;;;;;;5.10;2.40;;;;;;;9.09;59.17;100356.66;5019034;28;20214;-64
2023/10/16 12:23:13;;;;;;;3.87;1.43;;;;;;;9.06;58.85;100361.81;5012271;28;20235;-67
2023/10/16 12:25:45;;;;;;;3.70;1.30;;;;;;;8.98;59.12;100363.50;5013450;28;20251;-67
2023/10/16 12:28:13;;;;;;;3.13;1.43;;;;;;;8.90;58.83;100354.94;5013681;28;20574;-66
2023/10/16 12:30:42;;;;;;;3.80;1.40;;;;;;;8.88;58.42;100354.97;5014888;28;20306;-69
2023/10/16 12:33:10;;;;;;;2.33;1.13;;;;;;;8.93;58.76;100357.53;5017184;28;20196;-64
2023/10/16 12:35:38;;;;;;;5.23;1.40;;;;;;;9.00;58.32;100361.81;5015319;28;20572;-66
2023/10/16 12:38:07;;;;;;;3.97;1.67;;;;;;;9.09;57.34;100356.66;5022088;28;20207;-71
2023/10/16 12:40:37;;;;;;;3.03;1.20;;;;;;;9.12;57.43;100356.66;5019691;28;20213;-64
2023/10/16 12:43:08;;;;;;;2.30;1.30;;;;;;;9.21;56.80;100352.38;5009993;28;20346;-66
2023/10/16 12:45:39;;;;;;;2.73;1.33;;;;;;;9.15;56.54;100364.38;5016370;28;20202;-65
2023/10/16 12:48:08;;;;;;;2.17;1.37;;;;;;;9.12;56.96;100361.78;5017761;28;20663;-67
2023/10/16 12:50:36;;;;;;;3.40;1.60;;;;;;;9.13;56.98;100363.53;5015187;28;20289;-69
2023/10/16 12:53:05;;;;;;;4.47;1.57;;;;;;;9.15;56.76;100366.94;5009579;28;20207;-69
2023/10/16 12:55:33;;;;;;;5.30;1.50;;;;;;;9.18;56.24;100356.66;5019660;28;20654;-69
2023/10/16 12:58:03;;;;;;;3.67;1.40;;;;;;;9.27;56.33;100365.22;5017036;28;20730;-66
2023/10/16 13:00:38;;;;;;;5.53;1.40;;;;;;;9.38;55.21;100363.47;5012544;28;20210;-67
2023/10/16 13:03:13;;;;;;;3.97;1.30;;;;;;;9.45;55.31;100362.63;5016055;28;20226;-68
2023/10/16 13:05:42;;;;;;;3.60;1.40;;;;;;;9.55;55.24;100356.59;5018740;28;20676;-67
2023/10/16 13:08:11;;;;;;;3.67;1.37;;;;;;;9.47;53.65;100358.34;5022058;28;20206;-67
2023/10/16 13:10:41;;;;;;;2.80;1.40;;;;;;;9.48;54.81;100359.19;5019342;28;20291;-66